Terminal Aerodrome Forecast
Issued by NWS

Home | Current Version | Previous Version | Text Only | Print | Product List | Glossary On
Versions: 1 2 3 4 5 6 7 8 9 10 11 12 13 14 15 16 17 18 19 20 21 22 23 24 25 26 27 28 29 30 31 32 33
000
FTUS44 KHGX 212325
TAFIAH
TAF
KIAH 212325Z 2200/2306 13012KT P6SM SCT028 SCT250
     FM220500 15006KT P6SM BKN020
     FM221100 36004KT 6SM BR VCSH BKN015 BKN150
     FM221300 36008KT 6SM -RA BR VCTS BKN015CB
      TEMPO 2213/2215 36025KT 3SM TSRA
     FM221600 34010G20KT P6SM SCT025 BKN150
     FM221800 34013G23KT P6SM SCT180
     FM230000 34012KT P6SM SKC
     FM230400 34006KT P6SM SKC=

USA.gov is the U.S. government's official web portal to all federal, state and local government web resources and services.